Time;durP1;ratioP1;P1;durP2;ratioP2;P2;SDS_P1;SDS_P2;PMS_P1;PMS_P2;Temp;Humidity;BMP_temperature;BMP_pressure;BME280_temperature;BME280_humidity;BME280_pressure;Samples;Min_cycle;Max_cycle;Signal;HPM_P1;HPM_P2
2023/12/16 00:02:21;;;;;;;15.65;11.32;;;6.70;99.90;;;;;;5051357;28;20225;-60
2023/12/16 00:04:49;;;;;;;17.23;11.85;;;6.70;99.90;;;;;;5050887;28;20226;-58
2023/12/16 00:07:19;;;;;;;16.73;11.32;;;6.70;99.90;;;;;;5051304;28;20206;-58
2023/12/16 00:09:47;;;;;;;14.98;11.30;;;6.70;99.90;;;;;;5049139;28;20205;-58
2023/12/16 00:12:15;;;;;;;16.85;12.70;;;6.70;99.90;;;;;;5043096;28;20209;-61
2023/12/16 00:14:44;;;;;;;18.10;11.90;;;6.70;99.90;;;;;;5048821;28;20742;-61
2023/12/16 00:17:12;;;;;;;19.48;12.43;;;6.70;99.90;;;;;;5049167;28;20221;-60
2023/12/16 00:19:39;;;;;;;21.35;12.82;;;6.70;99.90;;;;;;5047602;28;20217;-60
2023/12/16 00:22:07;;;;;;;16.45;11.88;;;6.70;99.90;;;;;;5049929;28;20210;-57
2023/12/16 00:24:36;;;;;;;16.63;12.20;;;6.70;99.90;;;;;;5050636;28;20237;-61
2023/12/16 00:27:05;;;;;;;18.13;12.40;;;6.70;99.90;;;;;;5051461;28;20230;-61
2023/12/16 00:29:32;;;;;;;19.42;12.45;;;6.70;99.90;;;;;;5051112;28;20242;-57
2023/12/16 00:32:01;;;;;;;17.35;12.15;;;6.70;99.90;;;;;;5051296;28;20202;-57
2023/12/16 00:34:29;;;;;;;18.35;12.38;;;6.70;99.90;;;;;;5050699;28;20233;-59
2023/12/16 00:36:57;;;;;;;16.10;12.05;;;6.70;99.90;;;;;;5050909;28;20250;-58
2023/12/16 00:39:25;;;;;;;18.80;11.43;;;6.70;99.90;;;;;;5051234;28;20209;-57
2023/12/16 00:41:54;;;;;;;21.13;12.05;;;6.70;99.90;;;;;;5051118;28;20627;-58
2023/12/16 00:44:22;;;;;;;17.65;12.00;;;6.70;99.90;;;;;;5053175;28;20316;-60
2023/12/16 00:46:50;;;;;;;17.73;11.90;;;6.60;99.90;;;;;;5054917;28;20226;-61
2023/12/16 00:49:18;;;;;;;17.45;11.25;;;6.60;99.90;;;;;;5054837;28;20255;-60
2023/12/16 00:51:46;;;;;;;17.17;11.82;;;6.60;99.90;;;;;;5054892;28;20228;-57
2023/12/16 00:54:14;;;;;;;17.75;11.48;;;6.60;99.90;;;;;;5054874;28;20244;-61
2023/12/16 00:56:41;;;;;;;18.05;11.15;;;6.60;99.90;;;;;;5054743;28;20310;-60
2023/12/16 00:59:11;;;;;;;18.85;11.43;;;6.60;99.90;;;;;;5054752;28;20309;-60
2023/12/16 01:01:38;;;;;;;19.58;12.23;;;6.60;99.90;;;;;;5054818;28;20561;-61
2023/12/16 01:04:06;;;;;;;17.40;11.70;;;6.60;99.90;;;;;;5054273;28;20311;-61
2023/12/16 01:06:34;;;;;;;21.33;13.10;;;6.60;99.90;;;;;;5054876;28;20400;-60
2023/12/16 01:09:02;;;;;;;18.05;11.85;;;6.50;99.90;;;;;;5054532;28;20683;-58
2023/12/16 01:11:29;;;;;;;16.67;11.20;;;6.50;99.90;;;;;;5054523;28;20245;-57
2023/12/16 01:13:57;;;;;;;17.55;11.10;;;6.50;99.90;;;;;;5054328;28;20260;-61
2023/12/16 01:16:27;;;;;;;19.77;11.77;;;6.60;99.90;;;;;;5054257;28;20658;-59
2023/12/16 01:18:55;;;;;;;15.30;11.25;;;6.60;99.90;;;;;;5046606;28;20202;-61
2023/12/16 01:21:23;;;;;;;16.40;11.68;;;6.60;99.90;;;;;;5054628;28;20254;-61
2023/12/16 01:23:51;;;;;;;16.92;11.35;;;6.60;99.90;;;;;;5054008;28;20287;-57
2023/12/16 01:26:19;;;;;;;12.32;10.45;;;6.60;99.90;;;;;;5054270;28;20244;-60
2023/12/16 01:28:47;;;;;;;17.17;10.50;;;6.60;99.90;;;;;;5053936;28;20271;-57
2023/12/16 01:31:14;;;;;;;19.98;11.10;;;6.60;99.90;;;;;;5054355;28;20206;-61
2023/12/16 01:33:44;;;;;;;17.58;10.70;;;6.60;99.90;;;;;;5053750;28;20673;-60
2023/12/16 01:36:12;;;;;;;13.75;10.63;;;6.60;99.90;;;;;;5051044;28;20225;-57
2023/12/16 01:38:40;;;;;;;14.13;10.65;;;6.70;99.90;;;;;;5053918;28;20268;-57
2023/12/16 01:41:07;;;;;;;18.02;11.13;;;6.60;99.90;;;;;;5054188;28;20240;-57
2023/12/16 01:43:35;;;;;;;15.85;11.68;;;6.60;99.90;;;;;;5053494;28;20226;-57
2023/12/16 01:46:05;;;;;;;17.52;11.32;;;6.60;99.90;;;;;;5054348;28;20233;-60
2023/12/16 01:48:34;;;;;;;21.00;12.40;;;6.60;99.90;;;;;;5053718;28;20609;-60
2023/12/16 01:51:03;;;;;;;18.92;10.93;;;6.50;99.90;;;;;;5054045;28;20212;-58
2023/12/16 01:53:31;;;;;;;16.92;11.02;;;6.50;99.90;;;;;;5053397;28;20308;-58
2023/12/16 01:55:59;;;;;;;14.48;10.50;;;6.50;99.90;;;;;;5052633;28;20202;-58
2023/12/16 01:58:27;;;;;;;18.38;10.68;;;6.50;99.90;;;;;;5053467;28;20758;-60
2023/12/16 02:00:55;;;;;;;15.57;9.85;;;6.60;99.90;;;;;;5053735;28;20202;-57
2023/12/16 02:03:23;;;;;;;16.75;10.77;;;6.60;99.90;;;;;;5054053;28;20226;-61
2023/12/16 02:05:51;;;;;;;20.13;10.85;;;6.60;99.90;;;;;;5053393;28;20216;-61
2023/12/16 02:08:21;;;;;;;14.13;10.75;;;6.60;99.90;;;;;;5053550;28;20259;-57
2023/12/16 02:10:48;;;;;;;15.63;11.18;;;6.60;99.90;;;;;;5053627;28;20241;-60
2023/12/16 02:13:18;;;;;;;20.65;11.25;;;6.60;99.90;;;;;;5053553;28;20222;-60
2023/12/16 02:15:46;;;;;;;16.92;10.65;;;6.60;99.90;;;;;;5053154;28;20202;-57
2023/12/16 02:18:14;;;;;;;15.57;10.88;;;6.50;99.90;;;;;;5053383;28;20228;-58
2023/12/16 02:20:42;;;;;;;16.83;11.02;;;6.50;99.90;;;;;;5053267;28;20264;-57
2023/12/16 02:23:15;;;;;;;15.80;11.00;;;6.50;99.90;;;;;;5053142;28;20253;-57
2023/12/16 02:25:43;;;;;;;17.45;11.43;;;6.50;99.90;;;;;;5053020;28;20259;-58
2023/12/16 02:28:11;;;;;;;19.35;11.65;;;6.50;99.90;;;;;;5037138;28;20590;-57
2023/12/16 02:30:39;;;;;;;18.52;11.15;;;6.50;99.90;;;;;;5051469;28;20210;-57
2023/12/16 02:33:07;;;;;;;17.77;11.93;;;6.40;99.90;;;;;;5053034;28;20707;-57
2023/12/16 02:35:35;;;;;;;15.35;10.93;;;6.40;99.90;;;;;;5052891;28;20241;-57
2023/12/16 02:38:03;;;;;;;19.65;11.60;;;6.40;99.90;;;;;;5052846;28;20221;-57
2023/12/16 02:40:32;;;;;;;19.00;11.75;;;6.40;99.90;;;;;;5052916;28;20436;-57
2023/12/16 02:43:01;;;;;;;19.08;11.75;;;6.40;99.90;;;;;;5053041;28;20313;-57
2023/12/16 02:45:29;;;;;;;14.35;11.05;;;6.40;99.90;;;;;;5052437;28;20267;-57
2023/12/16 02:47:57;;;;;;;18.25;11.23;;;6.40;99.90;;;;;;5052987;28;20198;-58
2023/12/16 02:50:25;;;;;;;15.98;10.60;;;6.50;99.90;;;;;;5052768;28;20612;-58
2023/12/16 02:52:53;;;;;;;21.20;10.73;;;6.50;99.90;;;;;;5053019;28;20244;-62
2023/12/16 02:55:21;;;;;;;15.07;11.18;;;6.50;99.90;;;;;;5052773;28;20659;-60
2023/12/16 02:57:50;;;;;;;18.33;11.57;;;6.50;99.90;;;;;;5052922;28;20228;-60
2023/12/16 03:00:18;;;;;;;18.73;11.93;;;6.40;99.90;;;;;;5052883;28;20209;-60
2023/12/16 03:02:46;;;;;;;17.13;11.57;;;6.40;99.90;;;;;;5052447;28;20206;-60
2023/12/16 03:05:14;;;;;;;14.35;11.43;;;6.40;99.90;;;;;;5052360;28;20667;-61
2023/12/16 03:07:41;;;;;;;17.00;11.02;;;6.40;99.90;;;;;;5052213;28;20653;-57
2023/12/16 03:10:10;;;;;;;23.08;11.73;;;6.50;99.90;;;;;;5052129;28;20202;-57
2023/12/16 03:12:38;;;;;;;20.00;11.55;;;6.50;99.90;;;;;;5052463;28;20292;-57
2023/12/16 03:15:08;;;;;;;17.35;11.65;;;6.50;99.90;;;;;;5052156;28;20210;-60
2023/12/16 03:17:36;;;;;;;15.35;10.75;;;6.50;99.90;;;;;;5052247;28;20226;-61
2023/12/16 03:20:05;;;;;;;16.20;10.48;;;6.50;99.90;;;;;;5052078;28;20750;-61
2023/12/16 03:22:33;;;;;;;15.05;10.52;;;6.50;99.90;;;;;;5052044;28;20562;-60
2023/12/16 03:25:01;;;;;;;18.98;11.10;;;6.50;99.90;;;;;;5051573;28;20230;-59
2023/12/16 03:27:29;;;;;;;20.95;11.35;;;6.50;99.90;;;;;;5052234;28;20205;-58
2023/12/16 03:29:57;;;;;;;18.40;12.00;;;6.50;99.90;;;;;;5051953;28;20241;-59
2023/12/16 03:32:26;;;;;;;15.88;10.75;;;6.60;99.90;;;;;;5052070;28;20202;-61
2023/12/16 03:34:54;;;;;;;16.17;11.10;;;6.60;99.90;;;;;;5051591;28;20225;-61
2023/12/16 03:37:22;;;;;;;15.88;11.38;;;6.60;99.90;;;;;;5051695;28;20780;-60
2023/12/16 03:39:50;;;;;;;15.73;10.75;;;6.60;99.90;;;;;;5051990;28;20206;-60
2023/12/16 03:42:18;;;;;;;18.23;11.18;;;6.60;99.90;;;;;;5052010;28;20198;-61
2023/12/16 03:44:47;;;;;;;14.50;9.88;;;6.50;99.90;;;;;;5051455;28;20698;-58
2023/12/16 03:47:15;;;;;;;15.63;10.55;;;6.50;99.90;;;;;;5051681;28;20299;-60
2023/12/16 03:49:44;;;;;;;20.27;10.90;;;6.50;99.90;;;;;;5051408;28;20217;-60
2023/12/16 03:52:12;;;;;;;16.75;10.75;;;6.50;99.90;;;;;;5051970;28;20568;-60
2023/12/16 03:54:41;;;;;;;15.15;10.48;;;6.50;99.90;;;;;;5051532;28;20229;-59
2023/12/16 03:57:09;;;;;;;20.25;9.82;;;6.50;99.90;;;;;;5051487;28;20765;-57
2023/12/16 03:59:36;;;;;;;16.38;10.80;;;6.60;99.90;;;;;;5051588;28;20237;-61
2023/12/16 04:02:04;;;;;;;15.15;10.45;;;6.50;99.90;;;;;;5051532;28;20566;-60
2023/12/16 04:04:33;;;;;;;17.48;11.18;;;6.50;99.90;;;;;;5050998;28;20230;-57
2023/12/16 04:07:03;;;;;;;20.33;10.65;;;6.50;99.90;;;;;;5051696;28;20279;-58
2023/12/16 04:09:31;;;;;;;16.15;9.73;;;6.50;99.90;;;;;;5051278;28;20206;-57
2023/12/16 04:11:59;;;;;;;15.38;10.13;;;6.50;99.90;;;;;;5051550;28;20228;-58
2023/12/16 04:14:26;;;;;;;17.10;10.52;;;6.50;99.90;;;;;;5051104;28;20288;-58
2023/12/16 04:16:54;;;;;;;17.38;10.07;;;6.50;99.90;;;;;;5051637;28;20210;-59
2023/12/16 04:19:22;;;;;;;15.05;9.93;;;6.50;99.90;;;;;;5043615;28;20254;-60
2023/12/16 04:21:50;;;;;;;17.63;11.05;;;6.50;99.90;;;;;;5051431;28;20205;-60
2023/12/16 04:24:19;;;;;;;17.42;11.55;;;6.50;99.90;;;;;;5050945;28;20249;-59
2023/12/16 04:26:47;;;;;;;16.02;11.75;;;6.50;99.90;;;;;;5051051;28;20209;-58
2023/12/16 04:29:15;;;;;;;24.58;11.20;;;6.50;99.90;;;;;;5051092;28;20557;-58
2023/12/16 04:31:43;;;;;;;14.95;11.10;;;6.40;99.90;;;;;;5051091;28;20206;-58
2023/12/16 04:34:11;;;;;;;18.35;11.13;;;6.40;99.90;;;;;;5051251;28;20225;-61
2023/12/16 04:36:39;;;;;;;19.25;11.70;;;6.40;99.90;;;;;;5051162;28;20297;-61
2023/12/16 04:39:08;;;;;;;19.55;11.68;;;6.40;99.90;;;;;;5042846;28;20249;-61
2023/12/16 04:41:37;;;;;;;17.88;11.13;;;6.40;99.90;;;;;;5051222;28;20205;-57
2023/12/16 04:44:05;;;;;;;14.80;10.55;;;6.40;99.90;;;;;;5050655;28;20238;-58
2023/12/16 04:46:33;;;;;;;17.60;11.63;;;6.40;99.90;;;;;;5051180;28;20205;-57
2023/12/16 04:49:01;;;;;;;18.10;11.20;;;6.40;99.90;;;;;;5050991;28;20237;-60
2023/12/16 04:51:29;;;;;;;16.27;10.95;;;6.50;99.90;;;;;;5051097;28;20217;-57
2023/12/16 04:53:57;;;;;;;19.48;10.48;;;6.40;99.90;;;;;;5051045;28;20249;-57
2023/12/16 04:56:25;;;;;;;19.52;11.57;;;6.40;99.90;;;;;;5051201;28;20237;-57
2023/12/16 04:58:54;;;;;;;17.25;10.85;;;6.40;99.90;;;;;;5050912;28;20230;-59
2023/12/16 05:01:22;;;;;;;16.30;10.93;;;6.40;99.90;;;;;;5051174;28;20276;-57
2023/12/16 05:03:50;;;;;;;16.83;10.75;;;6.40;99.90;;;;;;5050572;28;20703;-57
2023/12/16 05:06:18;;;;;;;16.83;10.95;;;6.50;99.90;;;;;;5050917;28;20198;-58
2023/12/16 05:08:46;;;;;;;16.17;11.18;;;6.50;99.90;;;;;;5050675;28;20198;-57
2023/12/16 05:11:14;;;;;;;15.68;9.95;;;6.50;99.90;;;;;;5050816;28;20202;-58
2023/12/16 05:13:43;;;;;;;14.52;10.38;;;6.40;99.90;;;;;;5050904;28;20320;-57
2023/12/16 05:16:12;;;;;;;16.48;10.88;;;6.50;99.90;;;;;;5050972;28;20202;-60
2023/12/16 05:18:40;;;;;;;18.15;10.45;;;6.50;99.90;;;;;;5049991;28;20233;-61
2023/12/16 05:21:08;;;;;;;19.27;10.70;;;6.40;99.90;;;;;;5050519;28;20256;-60
2023/12/16 05:23:36;;;;;;;14.38;10.07;;;6.40;99.90;;;;;;5050387;28;20288;-60
2023/12/16 05:26:04;;;;;;;16.63;10.18;;;6.40;99.90;;;;;;5050526;28;20255;-61
2023/12/16 05:28:32;;;;;;;18.02;10.75;;;6.40;99.90;;;;;;5050810;28;20254;-58
2023/12/16 05:31:00;;;;;;;14.18;10.13;;;6.40;99.90;;;;;;5051627;28;20214;-61
2023/12/16 05:33:29;;;;;;;18.15;10.38;;;6.40;99.90;;;;;;5054046;28;20723;-60
2023/12/16 05:35:59;;;;;;;15.32;9.55;;;6.40;99.90;;;;;;5053997;28;20233;-60
2023/12/16 05:38:27;;;;;;;16.52;10.13;;;6.40;99.90;;;;;;5053953;28;20391;-57
2023/12/16 05:40:55;;;;;;;13.77;9.90;;;6.40;99.90;;;;;;5054149;28;20241;-57
2023/12/16 05:43:23;;;;;;;19.00;10.45;;;6.40;99.90;;;;;;5054178;28;20258;-57
2023/12/16 05:45:51;;;;;;;14.60;9.63;;;6.40;99.90;;;;;;5053748;28;20259;-61
2023/12/16 05:48:19;;;;;;;13.93;9.45;;;6.40;99.90;;;;;;5053869;28;20194;-60
2023/12/16 05:50:48;;;;;;;14.85;9.95;;;6.40;99.90;;;;;;5053426;28;20316;-60
2023/12/16 05:53:16;;;;;;;13.65;9.00;;;6.40;99.90;;;;;;5054086;28;20260;-61
2023/12/16 05:55:45;;;;;;;13.57;9.35;;;6.40;99.90;;;;;;5053430;28;20207;-58
2023/12/16 05:58:13;;;;;;;14.82;10.02;;;6.40;99.90;;;;;;5053847;28;20206;-57
2023/12/16 06:00:41;;;;;;;17.48;9.95;;;6.40;99.90;;;;;;5053738;28;20206;-61
2023/12/16 06:03:09;;;;;;;16.10;10.35;;;6.40;99.90;;;;;;5053467;28;20226;-58
2023/12/16 06:05:37;;;;;;;19.80;10.38;;;6.40;99.90;;;;;;5053456;28;20232;-58
2023/12/16 06:08:06;;;;;;;16.23;10.48;;;6.40;99.90;;;;;;5053406;28;20214;-59
2023/12/16 06:10:34;;;;;;;16.85;10.18;;;6.40;99.90;;;;;;5053583;28;20298;-59
2023/12/16 06:13:02;;;;;;;15.15;10.40;;;6.40;99.90;;;;;;5053791;28;20229;-59
2023/12/16 06:15:30;;;;;;;17.70;10.63;;;6.40;99.90;;;;;;5053190;28;20205;-59
2023/12/16 06:18:02;;;;;;;15.85;10.50;;;6.40;99.90;;;;;;5053622;28;20217;-58
2023/12/16 06:20:30;;;;;;;15.05;10.10;;;6.40;99.90;;;;;;5053122;28;20238;-58
2023/12/16 06:22:58;;;;;;;19.23;11.20;;;6.40;99.90;;;;;;5053257;28;20260;-58
2023/12/16 06:25:27;;;;;;;15.18;9.45;;;6.40;99.90;;;;;;5052946;28;20214;-55
2023/12/16 06:27:55;;;;;;;18.70;9.65;;;6.40;99.90;;;;;;5053077;28;20206;-55
2023/12/16 06:30:23;;;;;;;13.27;10.57;;;6.40;99.90;;;;;;5051876;28;20194;-55
2023/12/16 06:32:51;;;;;;;14.00;9.52;;;6.40;99.90;;;;;;5052773;28;20654;-56
2023/12/16 06:35:19;;;;;;;19.38;10.13;;;6.40;99.90;;;;;;5052747;28;20240;-58
2023/12/16 06:37:47;;;;;;;14.65;10.38;;;6.40;99.90;;;;;;5053129;28;20365;-56
2023/12/16 06:40:15;;;;;;;16.73;11.48;;;6.40;99.90;;;;;;5052739;28;20264;-55
2023/12/16 06:42:44;;;;;;;15.68;10.25;;;6.40;99.90;;;;;;5052365;28;20210;-55
2023/12/16 06:45:12;;;;;;;15.70;9.77;;;6.40;99.90;;;;;;5052396;28;20680;-59
2023/12/16 06:47:41;;;;;;;18.50;10.05;;;6.40;99.90;;;;;;5052923;28;20677;-59
2023/12/16 06:50:09;;;;;;;15.98;10.73;;;6.40;99.90;;;;;;5051985;28;20693;-59
2023/12/16 06:52:37;;;;;;;19.30;11.52;;;6.40;99.90;;;;;;5052634;28;20263;-58
2023/12/16 06:55:05;;;;;;;15.90;10.98;;;6.40;99.90;;;;;;5052366;28;20206;-59
2023/12/16 06:57:33;;;;;;;17.05;11.57;;;6.40;99.90;;;;;;5050569;28;20243;-56
2023/12/16 07:00:02;;;;;;;20.17;12.52;;;6.40;99.90;;;;;;5052237;28;20711;-61
2023/12/16 07:02:30;;;;;;;18.75;11.75;;;6.40;99.90;;;;;;5052713;28;20260;-61
2023/12/16 07:04:58;;;;;;;18.77;13.00;;;6.30;99.90;;;;;;5052129;28;20226;-61
2023/12/16 07:07:29;;;;;;;18.30;12.55;;;6.30;99.90;;;;;;5052504;28;20212;-60
2023/12/16 07:09:57;;;;;;;16.60;12.70;;;6.30;99.90;;;;;;5051952;28;20654;-61
2023/12/16 07:12:26;;;;;;;16.15;12.20;;;6.30;99.90;;;;;;5052547;28;20206;-61
2023/12/16 07:14:53;;;;;;;22.40;12.77;;;6.30;99.90;;;;;;5052030;28;20303;-63
2023/12/16 07:17:23;;;;;;;14.80;11.00;;;6.30;99.90;;;;;;5052238;28;20293;-63
2023/12/16 07:19:51;;;;;;;20.63;12.50;;;6.30;99.90;;;;;;5052122;28;20221;-62
2023/12/16 07:22:19;;;;;;;15.82;11.88;;;6.20;99.90;;;;;;5052008;28;20671;-63
2023/12/16 07:24:47;;;;;;;19.60;12.00;;;6.30;99.90;;;;;;5050273;28;20229;-63
2023/12/16 07:27:15;;;;;;;17.40;11.77;;;6.30;99.90;;;;;;5052036;28;20574;-63
2023/12/16 07:29:43;;;;;;;24.30;11.65;;;6.30;99.90;;;;;;5051885;28;20206;-62
2023/12/16 07:32:10;;;;;;;17.65;11.98;;;6.30;99.90;;;;;;5051785;28;20283;-63
2023/12/16 07:34:40;;;;;;;15.80;11.15;;;6.30;99.90;;;;;;5051544;28;20233;-63
2023/12/16 07:37:09;;;;;;;18.25;11.35;;;6.30;99.90;;;;;;5051729;28;20210;-63
2023/12/16 07:39:37;;;;;;;16.67;11.60;;;6.30;99.90;;;;;;5051625;28;20261;-63
2023/12/16 07:42:05;;;;;;;14.38;11.32;;;6.30;99.90;;;;;;5051951;28;20255;-62
2023/12/16 07:44:33;;;;;;;14.18;10.60;;;6.30;99.90;;;;;;5051561;28;20248;-62
2023/12/16 07:47:01;;;;;;;21.10;11.25;;;6.40;99.90;;;;;;5051525;28;20205;-62
2023/12/16 07:49:28;;;;;;;20.80;11.27;;;6.40;99.90;;;;;;5051302;28;20218;-63
2023/12/16 07:51:57;;;;;;;18.83;11.32;;;6.40;99.90;;;;;;5051921;28;20640;-62
2023/12/16 07:54:27;;;;;;;17.48;11.15;;;6.40;99.90;;;;;;5050624;28;20707;-62
2023/12/16 07:56:55;;;;;;;17.95;11.57;;;6.40;99.90;;;;;;5051314;28;20675;-62
2023/12/16 07:59:23;;;;;;;21.48;12.10;;;6.40;99.90;;;;;;5051380;28;20202;-62
2023/12/16 08:01:52;;;;;;;19.25;11.45;;;6.40;99.90;;;;;;5051679;28;20206;-62
2023/12/16 08:04:20;;;;;;;24.35;11.52;;;6.40;99.90;;;;;;5051134;28;20279;-62
2023/12/16 08:06:48;;;;;;;18.60;12.20;;;6.40;99.90;;;;;;5051727;28;20285;-63
2023/12/16 08:09:18;;;;;;;15.88;10.77;;;6.40;99.90;;;;;;5051132;28;20293;-63
2023/12/16 08:11:46;;;;;;;21.00;11.95;;;6.40;99.90;;;;;;5051472;28;20205;-63
2023/12/16 08:14:13;;;;;;;23.10;12.32;;;6.40;99.90;;;;;;5050950;28;20234;-63
2023/12/16 08:16:41;;;;;;;20.58;11.68;;;6.40;99.90;;;;;;5050997;28;20248;-63
2023/12/16 08:19:09;;;;;;;16.05;11.50;;;6.50;99.90;;;;;;5051298;28;20213;-62
2023/12/16 08:21:37;;;;;;;15.60;11.95;;;6.50;99.90;;;;;;5051248;28;20699;-62
2023/12/16 08:24:06;;;;;;;19.02;11.60;;;6.50;99.90;;;;;;5051143;28;20327;-62
2023/12/16 08:26:34;;;;;;;18.23;11.68;;;6.50;99.90;;;;;;5051257;28;20252;-63
2023/12/16 08:29:02;;;;;;;20.23;11.90;;;6.60;99.90;;;;;;5051111;28;20268;-65
2023/12/16 08:31:30;;;;;;;20.30;11.85;;;6.60;99.90;;;;;;5051018;28;20659;-63
2023/12/16 08:33:58;;;;;;;16.25;11.15;;;6.60;99.90;;;;;;5051235;28;20282;-62
2023/12/16 08:36:26;;;;;;;21.98;13.35;;;6.60;99.90;;;;;;5051052;28;20209;-62
2023/12/16 08:38:54;;;;;;;21.77;12.52;;;6.60;99.90;;;;;;5051272;28;20206;-62
2023/12/16 08:41:22;;;;;;;20.52;12.48;;;6.60;99.90;;;;;;5048822;28;20642;-61
2023/12/16 08:43:51;;;;;;;22.02;13.13;;;6.60;99.90;;;;;;5048113;28;20233;-63
2023/12/16 08:46:22;;;;;;;25.25;13.57;;;6.70;99.90;;;;;;5050886;28;20210;-62
2023/12/16 08:48:50;;;;;;;18.05;12.52;;;6.60;99.90;;;;;;5051245;28;20260;-62
2023/12/16 08:51:21;;;;;;;18.20;12.80;;;6.60;99.90;;;;;;5050955;28;20202;-62
2023/12/16 08:53:49;;;;;;;18.30;12.60;;;6.70;99.90;;;;;;5050851;28;20234;-62
2023/12/16 08:56:17;;;;;;;27.38;12.75;;;6.70;99.90;;;;;;5050560;28;20680;-62
2023/12/16 08:58:46;;;;;;;18.08;11.05;;;6.70;99.90;;;;;;5047438;28;20239;-62
2023/12/16 09:01:15;;;;;;;16.55;11.55;;;6.80;99.90;;;;;;5044390;28;20711;-62
2023/12/16 09:03:43;;;;;;;18.80;11.95;;;6.80;99.90;;;;;;5046810;28;20225;-62
2023/12/16 09:06:11;;;;;;;17.48;11.95;;;6.80;99.90;;;;;;5050863;28;20215;-61
2023/12/16 09:08:39;;;;;;;21.45;11.65;;;6.80;99.90;;;;;;5049240;28;20206;-61
2023/12/16 09:11:07;;;;;;;16.38;11.95;;;6.80;99.90;;;;;;5051355;28;20296;-61
2023/12/16 09:13:35;;;;;;;18.60;12.15;;;6.80;99.90;;;;;;5046752;28;20229;-63
2023/12/16 09:16:04;;;;;;;20.65;12.52;;;6.80;99.90;;;;;;5049993;28;20202;-62
2023/12/16 09:18:33;;;;;;;18.15;11.57;;;6.80;99.90;;;;;;5053775;28;20573;-62
2023/12/16 09:21:01;;;;;;;18.05;12.60;;;6.90;99.90;;;;;;5053639;28;20230;-62
2023/12/16 09:23:29;;;;;;;24.15;12.25;;;6.90;99.90;;;;;;5053855;28;20311;-63
2023/12/16 09:25:57;;;;;;;20.20;12.15;;;7.00;99.90;;;;;;5050710;28;20260;-62
2023/12/16 09:28:24;;;;;;;17.60;11.20;;;7.00;99.90;;;;;;5045491;28;20690;-61
2023/12/16 09:30:52;;;;;;;17.80;11.38;;;7.00;99.90;;;;;;5047137;28;20293;-62
2023/12/16 09:33:21;;;;;;;15.73;11.63;;;7.00;99.90;;;;;;5052317;28;20225;-62
2023/12/16 09:35:51;;;;;;;22.02;11.63;;;7.10;99.90;;;;;;5050654;28;20309;-61
2023/12/16 09:38:19;;;;;;;20.83;12.25;;;7.10;99.90;;;;;;5052344;28;20217;-62
2023/12/16 09:40:47;;;;;;;16.50;11.68;;;7.10;99.90;;;;;;5053345;28;20225;-63
2023/12/16 09:43:16;;;;;;;17.92;11.27;;;7.10;99.90;;;;;;5052768;28;20229;-63
2023/12/16 09:45:46;;;;;;;19.02;11.63;;;7.10;99.90;;;;;;5051858;28;20295;-63
2023/12/16 09:48:15;;;;;;;19.67;11.85;;;7.10;99.90;;;;;;5053685;28;20209;-62
2023/12/16 09:50:43;;;;;;;18.30;11.15;;;7.10;99.90;;;;;;5048814;28;20210;-63
2023/12/16 09:53:13;;;;;;;13.65;10.88;;;7.20;99.90;;;;;;5050071;28;20222;-61
2023/12/16 09:55:41;;;;;;;17.38;10.57;;;7.20;99.90;;;;;;5052104;28;20658;-62
2023/12/16 09:58:10;;;;;;;21.75;11.63;;;7.20;99.90;;;;;;5048260;28;20998;-61
2023/12/16 10:00:39;;;;;;;21.52;11.10;;;7.20;99.90;;;;;;5053114;28;20226;-62
2023/12/16 10:03:07;;;;;;;17.38;11.68;;;7.20;99.90;;;;;;5051828;28;20233;-61
2023/12/16 10:05:34;;;;;;;19.88;10.98;;;7.20;99.90;;;;;;5051302;28;20210;-62
2023/12/16 10:08:04;;;;;;;15.27;10.77;;;7.30;99.90;;;;;;5052193;28;20205;-62
2023/12/16 10:10:34;;;;;;;14.68;10.38;;;7.30;99.90;;;;;;5052367;28;20676;-62
2023/12/16 10:13:03;;;;;;;21.98;11.25;;;7.40;99.90;;;;;;5052205;28;20226;-63
2023/12/16 10:15:32;;;;;;;19.20;11.05;;;7.40;99.90;;;;;;5050217;28;20237;-62
2023/12/16 10:18:00;;;;;;;16.80;10.45;;;7.50;99.90;;;;;;5050843;28;20211;-61
2023/12/16 10:20:28;;;;;;;15.48;9.80;;;7.50;99.90;;;;;;5052018;28;20237;-62
2023/12/16 10:22:56;;;;;;;14.35;9.25;;;7.50;99.90;;;;;;5050885;28;20292;-62
2023/12/16 10:25:24;;;;;;;12.98;9.32;;;7.60;99.90;;;;;;5052395;28;20252;-62
2023/12/16 10:27:58;;;;;;;17.77;8.70;;;7.60;99.90;;;;;;5049981;28;20208;-62
2023/12/16 10:30:26;;;;;;;16.98;8.63;;;7.60;99.90;;;;;;5044889;28;20697;-62
2023/12/16 10:32:55;;;;;;;14.90;7.38;;;7.60;99.90;;;;;;5050734;28;20287;-62
2023/12/16 10:35:23;;;;;;;12.10;7.38;;;7.60;99.90;;;;;;5052019;28;20212;-62
2023/12/16 10:37:51;;;;;;;12.25;7.38;;;7.70;99.90;;;;;;5052983;28;20206;-62
2023/12/16 10:40:23;;;;;;;14.60;7.80;;;7.70;99.90;;;;;;5052898;28;20285;-62
2023/12/16 10:42:53;;;;;;;12.45;7.75;;;7.70;99.90;;;;;;5053132;28;20234;-62
2023/12/16 10:45:21;;;;;;;11.60;6.78;;;7.70;99.90;;;;;;5049867;28;20240;-62
2023/12/16 10:47:49;;;;;;;12.98;7.15;;;7.80;99.90;;;;;;5052502;28;20234;-62
2023/12/16 10:50:18;;;;;;;13.98;7.10;;;7.80;99.90;;;;;;5050851;28;20228;-62
2023/12/16 10:52:46;;;;;;;10.32;7.35;;;7.80;99.90;;;;;;5052118;28;20230;-62
2023/12/16 10:55:17;;;;;;;13.80;7.18;;;7.90;99.90;;;;;;5046518;28;20286;-62
2023/12/16 10:57:47;;;;;;;14.52;7.28;;;7.90;99.90;;;;;;5047213;28;20212;-61
2023/12/16 11:00:21;;;;;;;11.60;6.88;;;8.00;99.90;;;;;;5051281;28;20593;-63
2023/12/16 11:02:56;;;;;;;13.18;6.07;;;8.00;99.90;;;;;;5050475;28;20225;-63
2023/12/16 11:05:27;;;;;;;9.00;5.57;;;8.10;99.90;;;;;;5049339;28;20209;-63
2023/12/16 11:07:56;;;;;;;14.82;6.32;;;8.10;99.90;;;;;;5052084;28;20206;-63
2023/12/16 11:10:24;;;;;;;11.27;5.97;;;8.10;99.90;;;;;;5050376;28;20567;-63
2023/12/16 11:12:51;;;;;;;13.18;5.72;;;8.10;99.90;;;;;;5049356;28;20672;-63
2023/12/16 11:15:21;;;;;;;13.20;5.40;;;8.10;99.90;;;;;;5049243;28;20210;-63
2023/12/16 11:17:53;;;;;;;8.02;4.90;;;8.20;99.90;;;;;;5050608;28;20317;-63
2023/12/16 11:20:23;;;;;;;16.52;5.28;;;8.20;99.90;;;;;;5050970;28;20240;-63
2023/12/16 11:22:51;;;;;;;12.00;5.53;;;8.20;99.90;;;;;;5050257;28;20229;-63
2023/12/16 11:25:20;;;;;;;10.45;3.83;;;8.20;99.90;;;;;;5048980;28;20198;-63
2023/12/16 11:27:48;;;;;;;12.05;4.55;;;8.20;99.90;;;;;;5048121;28;20232;-63
2023/12/16 11:30:16;;;;;;;13.57;4.90;;;8.30;99.90;;;;;;5051260;28;20312;-63
2023/12/16 11:32:52;;;;;;;13.10;4.43;;;8.30;99.90;;;;;;5051839;28;20202;-63
2023/12/16 11:35:50;;;;;;;11.80;4.25;;;8.40;99.90;;;;;;5051683;28;20216;-63
2023/12/16 11:38:38;;;;;;;8.30;4.78;;;8.40;99.90;;;;;;5049107;28;20436;-63
2023/12/16 11:41:06;;;;;;;10.10;4.85;;;8.50;99.90;;;;;;5044443;28;20573;-63
2023/12/16 11:43:47;;;;;;;9.75;4.60;;;8.50;99.90;;;;;;5048135;28;20234;-63
2023/12/16 11:46:33;;;;;;;12.95;4.85;;;8.50;99.90;;;;;;5051299;28;20663;-63
2023/12/16 11:49:03;;;;;;;13.50;4.22;;;8.60;99.90;;;;;;5051590;28;20686;-63
2023/12/16 11:51:34;;;;;;;7.00;4.32;;;8.60;99.90;;;;;;5051608;28;20202;-63
2023/12/16 11:54:03;;;;;;;14.77;4.55;;;8.60;99.90;;;;;;5051241;28;20276;-63
2023/12/16 11:56:33;;;;;;;9.75;3.95;;;8.70;99.90;;;;;;5051497;28;20208;-63
2023/12/16 11:59:01;;;;;;;11.05;3.17;;;8.70;99.90;;;;;;5051537;28;20259;-63
2023/12/16 12:01:31;;;;;;;8.68;3.40;;;8.70;99.90;;;;;;5051284;28;20240;-63
2023/12/16 12:03:59;;;;;;;12.35;3.38;;;8.80;99.90;;;;;;5048466;28;20242;-63
2023/12/16 12:06:28;;;;;;;10.75;3.58;;;8.80;99.90;;;;;;5046231;28;20318;-62
2023/12/16 12:08:56;;;;;;;13.38;3.80;;;8.80;99.90;;;;;;5046363;28;20221;-63
2023/12/16 12:11:23;;;;;;;16.20;3.35;;;8.90;99.90;;;;;;5049497;28;20379;-64
2023/12/16 12:13:52;;;;;;;9.57;3.28;;;8.90;99.90;;;;;;5049612;28;20230;-63
2023/12/16 12:16:21;;;;;;;10.45;2.65;;;8.90;99.90;;;;;;5050684;28;20232;-64
2023/12/16 12:18:49;;;;;;;11.57;3.30;;;8.90;99.90;;;;;;5051197;28;20320;-63
2023/12/16 12:21:17;;;;;;;11.30;2.72;;;9.00;99.90;;;;;;5050887;28;20323;-62
2023/12/16 12:23:46;;;;;;;7.07;3.00;;;9.10;99.90;;;;;;5050528;28;20233;-63
2023/12/16 12:26:19;;;;;;;7.82;2.90;;;9.10;99.90;;;;;;5050876;28;20226;-63
2023/12/16 12:28:56;;;;;;;11.85;3.00;;;9.10;99.90;;;;;;5051248;28;20221;-63
2023/12/16 12:31:24;;;;;;;17.13;3.40;;;9.10;99.90;;;;;;5051339;28;20631;-64
2023/12/16 12:33:52;;;;;;;11.43;3.15;;;9.20;99.90;;;;;;5051067;28;20715;-63
2023/12/16 12:36:21;;;;;;;11.30;3.10;;;9.20;99.90;;;;;;5051031;28;20209;-63
2023/12/16 12:38:54;;;;;;;11.15;2.50;;;9.20;99.90;;;;;;5051250;28;20198;-63
2023/12/16 12:41:22;;;;;;;12.63;2.85;;;9.30;99.90;;;;;;5055152;28;20281;-63
2023/12/16 12:43:50;;;;;;;6.75;1.90;;;9.30;99.90;;;;;;5055145;28;20363;-63
2023/12/16 12:46:18;;;;;;;7.50;2.17;;;9.30;99.90;;;;;;5054962;28;20206;-63
2023/12/16 12:48:53;;;;;;;9.75;1.90;;;9.40;99.90;;;;;;5055355;28;20206;-63